sensor_id;sensor_type;location;lat;lon;timestamp;P1;durP1;ratioP1;P2;durP2;ratioP2
34673;SDS011;20879;55.668;37.858;2023-04-03T00:01:30;15.40;;;9.48;;
34673;SDS011;20879;55.668;37.858;2023-04-03T00:03:59;21.58;;;10.50;;
34673;SDS011;20879;55.668;37.858;2023-04-03T00:06:29;16.95;;;9.90;;
34673;SDS011;20879;55.668;37.858;2023-04-03T00:08:58;15.13;;;9.27;;
34673;SDS011;20879;55.668;37.858;2023-04-03T00:11:27;14.77;;;9.30;;
34673;SDS011;20879;55.668;37.858;2023-04-03T00:14:07;14.68;;;9.35;;
34673;SDS011;20879;55.668;37.858;2023-04-03T00:16:36;19.65;;;10.05;;
34673;SDS011;20879;55.668;37.858;2023-04-03T00:19:06;16.95;;;9.88;;
34673;SDS011;20879;55.668;37.858;2023-04-03T00:21:38;17.17;;;9.80;;
34673;SDS011;20879;55.668;37.858;2023-04-03T00:24:07;21.92;;;10.43;;
34673;SDS011;20879;55.668;37.858;2023-04-03T00:26:37;18.23;;;10.18;;
34673;SDS011;20879;55.668;37.858;2023-04-03T00:29:10;19.47;;;10.57;;
34673;SDS011;20879;55.668;37.858;2023-04-03T00:31:39;19.95;;;10.50;;
34673;SDS011;20879;55.668;37.858;2023-04-03T00:34:09;17.67;;;10.55;;
34673;SDS011;20879;55.668;37.858;2023-04-03T00:36:38;17.50;;;9.93;;
34673;SDS011;20879;55.668;37.858;2023-04-03T00:39:07;17.30;;;10.30;;
34673;SDS011;20879;55.668;37.858;2023-04-03T00:41:37;19.27;;;10.32;;
34673;SDS011;20879;55.668;37.858;2023-04-03T00:44:22;17.15;;;11.00;;
34673;SDS011;20879;55.668;37.858;2023-04-03T00:50:00;15.30;;;9.23;;
34673;SDS011;20879;55.668;37.858;2023-04-03T00:52:35;15.93;;;9.73;;
34673;SDS011;20879;55.668;37.858;2023-04-03T00:55:07;15.90;;;9.60;;
34673;SDS011;20879;55.668;37.858;2023-04-03T00:57:38;16.00;;;9.70;;
34673;SDS011;20879;55.668;37.858;2023-04-03T01:00:10;14.38;;;9.27;;
34673;SDS011;20879;55.668;37.858;2023-04-03T01:02:43;15.15;;;9.60;;
34673;SDS011;20879;55.668;37.858;2023-04-03T01:05:15;14.97;;;9.33;;
34673;SDS011;20879;55.668;37.858;2023-04-03T01:07:45;13.00;;;9.10;;
34673;SDS011;20879;55.668;37.858;2023-04-03T01:10:16;16.73;;;9.77;;
34673;SDS011;20879;55.668;37.858;2023-04-03T01:12:48;17.65;;;9.77;;
34673;SDS011;20879;55.668;37.858;2023-04-03T01:15:21;16.87;;;9.67;;
34673;SDS011;20879;55.668;37.858;2023-04-03T01:17:59;15.27;;;9.25;;
34673;SDS011;20879;55.668;37.858;2023-04-03T01:23:56;16.58;;;9.00;;
34673;SDS011;20879;55.668;37.858;2023-04-03T01:26:31;15.05;;;9.30;;
34673;SDS011;20879;55.668;37.858;2023-04-03T01:29:02;13.63;;;9.67;;
34673;SDS011;20879;55.668;37.858;2023-04-03T01:34:30;14.05;;;9.35;;
34673;SDS011;20879;55.668;37.858;2023-04-03T01:37:00;18.27;;;9.65;;
34673;SDS011;20879;55.668;37.858;2023-04-03T01:39:29;19.13;;;9.65;;
34673;SDS011;20879;55.668;37.858;2023-04-03T01:41:59;14.57;;;9.50;;
34673;SDS011;20879;55.668;37.858;2023-04-03T01:44:34;17.48;;;9.80;;
34673;SDS011;20879;55.668;37.858;2023-04-03T01:47:05;19.00;;;9.55;;
34673;SDS011;20879;55.668;37.858;2023-04-03T01:52:12;15.38;;;9.50;;
34673;SDS011;20879;55.668;37.858;2023-04-03T01:54:42;17.65;;;10.13;;
34673;SDS011;20879;55.668;37.858;2023-04-03T01:57:11;15.43;;;9.70;;
34673;SDS011;20879;55.668;37.858;2023-04-03T02:02:23;15.70;;;9.43;;
34673;SDS011;20879;55.668;37.858;2023-04-03T02:04:54;13.32;;;9.02;;
34673;SDS011;20879;55.668;37.858;2023-04-03T02:07:23;16.95;;;9.15;;
34673;SDS011;20879;55.668;37.858;2023-04-03T02:09:53;14.18;;;9.27;;
34673;SDS011;20879;55.668;37.858;2023-04-03T02:12:33;13.85;;;9.15;;
34673;SDS011;20879;55.668;37.858;2023-04-03T02:15:03;14.68;;;8.80;;
34673;SDS011;20879;55.668;37.858;2023-04-03T02:17:36;16.30;;;9.27;;
34673;SDS011;20879;55.668;37.858;2023-04-03T02:20:08;15.85;;;10.05;;
34673;SDS011;20879;55.668;37.858;2023-04-03T02:22:38;21.42;;;9.48;;
34673;SDS011;20879;55.668;37.858;2023-04-03T02:25:07;18.65;;;9.68;;
34673;SDS011;20879;55.668;37.858;2023-04-03T02:27:38;16.05;;;9.70;;
34673;SDS011;20879;55.668;37.858;2023-04-03T02:30:08;14.68;;;9.60;;
34673;SDS011;20879;55.668;37.858;2023-04-03T02:32:39;15.55;;;10.13;;
34673;SDS011;20879;55.668;37.858;2023-04-03T02:35:11;15.32;;;9.95;;
34673;SDS011;20879;55.668;37.858;2023-04-03T02:37:41;21.08;;;9.73;;
34673;SDS011;20879;55.668;37.858;2023-04-03T02:40:10;20.63;;;10.18;;
34673;SDS011;20879;55.668;37.858;2023-04-03T02:42:40;17.52;;;9.63;;
34673;SDS011;20879;55.668;37.858;2023-04-03T02:45:10;15.15;;;11.60;;
34673;SDS011;20879;55.668;37.858;2023-04-03T02:47:39;23.80;;;11.75;;
34673;SDS011;20879;55.668;37.858;2023-04-03T02:50:11;17.63;;;11.90;;
34673;SDS011;20879;55.668;37.858;2023-04-03T02:52:46;18.55;;;10.43;;
34673;SDS011;20879;55.668;37.858;2023-04-03T02:55:15;14.90;;;9.77;;
34673;SDS011;20879;55.668;37.858;2023-04-03T02:57:47;18.30;;;10.07;;
34673;SDS011;20879;55.668;37.858;2023-04-03T03:00:17;17.33;;;9.93;;
34673;SDS011;20879;55.668;37.858;2023-04-03T03:02:48;18.35;;;10.55;;
34673;SDS011;20879;55.668;37.858;2023-04-03T03:05:20;18.58;;;11.38;;
34673;SDS011;20879;55.668;37.858;2023-04-03T03:08:01;19.50;;;10.23;;
34673;SDS011;20879;55.668;37.858;2023-04-03T03:10:31;16.67;;;11.05;;
34673;SDS011;20879;55.668;37.858;2023-04-03T03:13:00;19.05;;;11.40;;
34673;SDS011;20879;55.668;37.858;2023-04-03T03:15:30;21.40;;;12.05;;
34673;SDS011;20879;55.668;37.858;2023-04-03T03:18:04;22.98;;;13.90;;
34673;SDS011;20879;55.668;37.858;2023-04-03T03:20:40;31.38;;;15.27;;
34673;SDS011;20879;55.668;37.858;2023-04-03T03:23:10;23.92;;;14.40;;
34673;SDS011;20879;55.668;37.858;2023-04-03T03:25:40;24.38;;;12.95;;
34673;SDS011;20879;55.668;37.858;2023-04-03T03:28:14;22.52;;;12.88;;
34673;SDS011;20879;55.668;37.858;2023-04-03T03:30:44;25.83;;;13.98;;
34673;SDS011;20879;55.668;37.858;2023-04-03T03:33:13;20.40;;;12.65;;
34673;SDS011;20879;55.668;37.858;2023-04-03T03:35:45;22.27;;;12.30;;
34673;SDS011;20879;55.668;37.858;2023-04-03T03:38:15;25.23;;;14.18;;
34673;SDS011;20879;55.668;37.858;2023-04-03T03:40:44;21.73;;;12.52;;
34673;SDS011;20879;55.668;37.858;2023-04-03T03:43:17;22.35;;;11.95;;
34673;SDS011;20879;55.668;37.858;2023-04-03T03:45:49;31.33;;;13.45;;
34673;SDS011;20879;55.668;37.858;2023-04-03T03:48:21;22.33;;;11.73;;
34673;SDS011;20879;55.668;37.858;2023-04-03T03:50:53;22.60;;;12.50;;
34673;SDS011;20879;55.668;37.858;2023-04-03T03:53:27;22.83;;;11.80;;
34673;SDS011;20879;55.668;37.858;2023-04-03T03:56:03;25.90;;;11.82;;
34673;SDS011;20879;55.668;37.858;2023-04-03T03:58:35;21.98;;;11.63;;
34673;SDS011;20879;55.668;37.858;2023-04-03T04:01:12;20.92;;;11.80;;
34673;SDS011;20879;55.668;37.858;2023-04-03T04:03:46;23.08;;;11.85;;
34673;SDS011;20879;55.668;37.858;2023-04-03T04:06:27;18.67;;;10.60;;
34673;SDS011;20879;55.668;37.858;2023-04-03T04:09:00;20.52;;;10.73;;
34673;SDS011;20879;55.668;37.858;2023-04-03T04:11:29;16.05;;;9.95;;
34673;SDS011;20879;55.668;37.858;2023-04-03T04:14:05;20.02;;;10.05;;
34673;SDS011;20879;55.668;37.858;2023-04-03T04:16:42;25.63;;;10.95;;
34673;SDS011;20879;55.668;37.858;2023-04-03T04:19:20;17.23;;;9.80;;
34673;SDS011;20879;55.668;37.858;2023-04-03T04:21:51;18.33;;;9.68;;
34673;SDS011;20879;55.668;37.858;2023-04-03T04:24:21;17.88;;;10.00;;
34673;SDS011;20879;55.668;37.858;2023-04-03T04:26:53;20.48;;;10.73;;
34673;SDS011;20879;55.668;37.858;2023-04-03T04:29:23;23.80;;;10.32;;
34673;SDS011;20879;55.668;37.858;2023-04-03T04:31:59;18.48;;;10.80;;
34673;SDS011;20879;55.668;37.858;2023-04-03T04:34:29;22.48;;;10.57;;
34673;SDS011;20879;55.668;37.858;2023-04-03T04:37:02;21.10;;;10.70;;
34673;SDS011;20879;55.668;37.858;2023-04-03T04:39:31;21.42;;;10.25;;
34673;SDS011;20879;55.668;37.858;2023-04-03T04:42:02;15.75;;;9.98;;
34673;SDS011;20879;55.668;37.858;2023-04-03T04:47:03;19.30;;;10.10;;
34673;SDS011;20879;55.668;37.858;2023-04-03T04:49:38;20.23;;;10.88;;
34673;SDS011;20879;55.668;37.858;2023-04-03T04:52:16;20.83;;;10.20;;
34673;SDS011;20879;55.668;37.858;2023-04-03T04:54:45;17.45;;;9.10;;
34673;SDS011;20879;55.668;37.858;2023-04-03T04:59:50;18.38;;;10.65;;
34673;SDS011;20879;55.668;37.858;2023-04-03T05:02:19;21.02;;;10.25;;
34673;SDS011;20879;55.668;37.858;2023-04-03T05:04:48;20.48;;;10.50;;
34673;SDS011;20879;55.668;37.858;2023-04-03T05:07:25;23.02;;;10.75;;
34673;SDS011;20879;55.668;37.858;2023-04-03T05:09:56;18.20;;;10.90;;
34673;SDS011;20879;55.668;37.858;2023-04-03T05:12:28;20.73;;;10.35;;
34673;SDS011;20879;55.668;37.858;2023-04-03T05:15:00;21.83;;;10.50;;
34673;SDS011;20879;55.668;37.858;2023-04-03T05:17:36;18.95;;;10.88;;
34673;SDS011;20879;55.668;37.858;2023-04-03T05:20:10;23.65;;;10.60;;
34673;SDS011;20879;55.668;37.858;2023-04-03T05:22:43;23.02;;;11.30;;
34673;SDS011;20879;55.668;37.858;2023-04-03T05:25:13;18.75;;;9.90;;
34673;SDS011;20879;55.668;37.858;2023-04-03T05:27:43;20.95;;;10.70;;
34673;SDS011;20879;55.668;37.858;2023-04-03T05:30:13;22.48;;;10.80;;
34673;SDS011;20879;55.668;37.858;2023-04-03T05:32:44;20.25;;;12.07;;
34673;SDS011;20879;55.668;37.858;2023-04-03T05:38:13;24.35;;;11.77;;
34673;SDS011;20879;55.668;37.858;2023-04-03T05:40:43;19.83;;;9.77;;
34673;SDS011;20879;55.668;37.858;2023-04-03T05:43:13;22.80;;;10.65;;
34673;SDS011;20879;55.668;37.858;2023-04-03T05:45:43;18.48;;;9.50;;
34673;SDS011;20879;55.668;37.858;2023-04-03T05:48:14;16.10;;;9.63;;
34673;SDS011;20879;55.668;37.858;2023-04-03T05:50:43;19.45;;;8.77;;
34673;SDS011;20879;55.668;37.858;2023-04-03T05:53:21;19.15;;;9.07;;
34673;SDS011;20879;55.668;37.858;2023-04-03T05:55:57;17.48;;;9.05;;
34673;SDS011;20879;55.668;37.858;2023-04-03T05:58:29;16.42;;;8.77;;
34673;SDS011;20879;55.668;37.858;2023-04-03T06:01:00;19.17;;;9.02;;
34673;SDS011;20879;55.668;37.858;2023-04-03T06:03:30;20.15;;;8.85;;
34673;SDS011;20879;55.668;37.858;2023-04-03T06:08:43;17.75;;;8.95;;
34673;SDS011;20879;55.668;37.858;2023-04-03T06:11:13;19.85;;;9.00;;
34673;SDS011;20879;55.668;37.858;2023-04-03T06:13:42;16.83;;;9.00;;
34673;SDS011;20879;55.668;37.858;2023-04-03T06:16:12;20.58;;;9.45;;
34673;SDS011;20879;55.668;37.858;2023-04-03T06:18:43;23.80;;;8.83;;
34673;SDS011;20879;55.668;37.858;2023-04-03T06:21:12;27.25;;;9.80;;
34673;SDS011;20879;55.668;37.858;2023-04-03T06:23:49;25.33;;;9.60;;
34673;SDS011;20879;55.668;37.858;2023-04-03T06:26:18;16.58;;;9.02;;
34673;SDS011;20879;55.668;37.858;2023-04-03T06:28:48;20.75;;;8.65;;
34673;SDS011;20879;55.668;37.858;2023-04-03T06:31:18;20.08;;;8.40;;
34673;SDS011;20879;55.668;37.858;2023-04-03T06:33:48;17.45;;;8.30;;
34673;SDS011;20879;55.668;37.858;2023-04-03T06:36:23;19.65;;;8.77;;
34673;SDS011;20879;55.668;37.858;2023-04-03T06:38:58;15.00;;;8.68;;
34673;SDS011;20879;55.668;37.858;2023-04-03T06:44:03;15.65;;;8.60;;
34673;SDS011;20879;55.668;37.858;2023-04-03T06:46:32;18.45;;;10.57;;
34673;SDS011;20879;55.668;37.858;2023-04-03T06:49:02;22.45;;;9.05;;
34673;SDS011;20879;55.668;37.858;2023-04-03T06:54:10;15.05;;;9.00;;
34673;SDS011;20879;55.668;37.858;2023-04-03T06:56:39;21.35;;;9.15;;
34673;SDS011;20879;55.668;37.858;2023-04-03T06:59:09;22.45;;;9.38;;
34673;SDS011;20879;55.668;37.858;2023-04-03T07:01:45;22.45;;;9.75;;
34673;SDS011;20879;55.668;37.858;2023-04-03T07:04:20;24.58;;;9.82;;
34673;SDS011;20879;55.668;37.858;2023-04-03T07:06:51;18.35;;;8.70;;
34673;SDS011;20879;55.668;37.858;2023-04-03T07:09:23;21.35;;;9.80;;
34673;SDS011;20879;55.668;37.858;2023-04-03T07:11:57;19.55;;;9.80;;
34673;SDS011;20879;55.668;37.858;2023-04-03T07:14:27;19.33;;;9.57;;
34673;SDS011;20879;55.668;37.858;2023-04-03T07:16:56;15.93;;;9.05;;
34673;SDS011;20879;55.668;37.858;2023-04-03T07:19:25;18.73;;;10.35;;
34673;SDS011;20879;55.668;37.858;2023-04-03T07:22:01;21.30;;;10.13;;
34673;SDS011;20879;55.668;37.858;2023-04-03T07:24:32;29.60;;;11.18;;
34673;SDS011;20879;55.668;37.858;2023-04-03T07:27:02;28.63;;;10.60;;
34673;SDS011;20879;55.668;37.858;2023-04-03T07:29:34;22.98;;;10.52;;
34673;SDS011;20879;55.668;37.858;2023-04-03T07:32:04;26.42;;;11.85;;
34673;SDS011;20879;55.668;37.858;2023-04-03T07:34:34;26.08;;;11.80;;
34673;SDS011;20879;55.668;37.858;2023-04-03T07:37:05;39.75;;;14.00;;
34673;SDS011;20879;55.668;37.858;2023-04-03T07:39:45;29.67;;;13.65;;
34673;SDS011;20879;55.668;37.858;2023-04-03T07:42:14;24.58;;;13.13;;
34673;SDS011;20879;55.668;37.858;2023-04-03T07:44:44;25.15;;;12.25;;
34673;SDS011;20879;55.668;37.858;2023-04-03T07:47:13;30.60;;;13.85;;
34673;SDS011;20879;55.668;37.858;2023-04-03T07:49:44;26.20;;;13.20;;
34673;SDS011;20879;55.668;37.858;2023-04-03T07:52:15;20.50;;;12.68;;
34673;SDS011;20879;55.668;37.858;2023-04-03T07:54:46;23.90;;;13.60;;
34673;SDS011;20879;55.668;37.858;2023-04-03T07:57:16;24.58;;;12.85;;
34673;SDS011;20879;55.668;37.858;2023-04-03T07:59:49;28.77;;;12.38;;
34673;SDS011;20879;55.668;37.858;2023-04-03T08:02:19;25.67;;;13.77;;
34673;SDS011;20879;55.668;37.858;2023-04-03T08:04:48;24.17;;;13.13;;
34673;SDS011;20879;55.668;37.858;2023-04-03T08:07:18;24.73;;;11.88;;
34673;SDS011;20879;55.668;37.858;2023-04-03T08:09:50;29.67;;;12.68;;
34673;SDS011;20879;55.668;37.858;2023-04-03T08:12:30;19.02;;;11.90;;
34673;SDS011;20879;55.668;37.858;2023-04-03T08:15:00;24.13;;;11.63;;
34673;SDS011;20879;55.668;37.858;2023-04-03T08:17:29;21.90;;;12.95;;
34673;SDS011;20879;55.668;37.858;2023-04-03T08:20:05;25.05;;;12.75;;
34673;SDS011;20879;55.668;37.858;2023-04-03T08:22:36;25.33;;;12.50;;
34673;SDS011;20879;55.668;37.858;2023-04-03T08:25:08;23.23;;;12.80;;
34673;SDS011;20879;55.668;37.858;2023-04-03T08:27:43;21.38;;;12.90;;
34673;SDS011;20879;55.668;37.858;2023-04-03T08:30:12;23.92;;;13.10;;
34673;SDS011;20879;55.668;37.858;2023-04-03T08:35:19;19.85;;;11.27;;
34673;SDS011;20879;55.668;37.858;2023-04-03T08:37:48;21.92;;;10.88;;
34673;SDS011;20879;55.668;37.858;2023-04-03T08:40:19;19.15;;;10.43;;
34673;SDS011;20879;55.668;37.858;2023-04-03T08:42:52;20.60;;;10.18;;
34673;SDS011;20879;55.668;37.858;2023-04-03T08:45:36;19.27;;;9.75;;
34673;SDS011;20879;55.668;37.858;2023-04-03T08:48:17;20.52;;;10.27;;
34673;SDS011;20879;55.668;37.858;2023-04-03T08:50:51;24.38;;;10.18;;
34673;SDS011;20879;55.668;37.858;2023-04-03T08:53:25;25.00;;;10.02;;
34673;SDS011;20879;55.668;37.858;2023-04-03T08:56:00;17.90;;;9.30;;
34673;SDS011;20879;55.668;37.858;2023-04-03T08:58:35;22.55;;;10.52;;
34673;SDS011;20879;55.668;37.858;2023-04-03T09:01:16;20.98;;;10.13;;
34673;SDS011;20879;55.668;37.858;2023-04-03T09:03:48;24.73;;;9.90;;
34673;SDS011;20879;55.668;37.858;2023-04-03T09:06:19;17.88;;;9.43;;
34673;SDS011;20879;55.668;37.858;2023-04-03T09:08:51;15.52;;;9.85;;
34673;SDS011;20879;55.668;37.858;2023-04-03T09:11:36;18.85;;;8.73;;
34673;SDS011;20879;55.668;37.858;2023-04-03T09:14:22;19.33;;;9.45;;
34673;SDS011;20879;55.668;37.858;2023-04-03T09:17:03;25.90;;;9.98;;
34673;SDS011;20879;55.668;37.858;2023-04-03T09:19:40;15.43;;;9.00;;
34673;SDS011;20879;55.668;37.858;2023-04-03T09:22:18;22.38;;;9.55;;
34673;SDS011;20879;55.668;37.858;2023-04-03T09:24:57;22.38;;;10.43;;
34673;SDS011;20879;55.668;37.858;2023-04-03T09:27:30;18.45;;;9.52;;
34673;SDS011;20879;55.668;37.858;2023-04-03T09:30:00;24.00;;;10.32;;
34673;SDS011;20879;55.668;37.858;2023-04-03T09:32:30;23.95;;;10.05;;
34673;SDS011;20879;55.668;37.858;2023-04-03T09:35:02;25.60;;;10.90;;
34673;SDS011;20879;55.668;37.858;2023-04-03T09:37:53;24.92;;;10.00;;
34673;SDS011;20879;55.668;37.858;2023-04-03T09:40:31;30.08;;;10.40;;
34673;SDS011;20879;55.668;37.858;2023-04-03T09:45:53;23.23;;;9.93;;
34673;SDS011;20879;55.668;37.858;2023-04-03T09:48:25;17.17;;;9.10;;
34673;SDS011;20879;55.668;37.858;2023-04-03T09:50:56;21.23;;;10.05;;
34673;SDS011;20879;55.668;37.858;2023-04-03T09:53:34;17.90;;;8.82;;
34673;SDS011;20879;55.668;37.858;2023-04-03T09:56:18;30.30;;;10.70;;
34673;SDS011;20879;55.668;37.858;2023-04-03T10:01:42;23.33;;;9.25;;
34673;SDS011;20879;55.668;37.858;2023-04-03T10:09:55;17.70;;;8.50;;
34673;SDS011;20879;55.668;37.858;2023-04-03T10:12:43;22.45;;;9.05;;
34673;SDS011;20879;55.668;37.858;2023-04-03T10:17:51;20.48;;;8.15;;
34673;SDS011;20879;55.668;37.858;2023-04-03T10:20:48;21.83;;;9.60;;
34673;SDS011;20879;55.668;37.858;2023-04-03T10:23:21;15.35;;;8.98;;
34673;SDS011;20879;55.668;37.858;2023-04-03T10:25:59;18.67;;;7.97;;
34673;SDS011;20879;55.668;37.858;2023-04-03T10:28:45;15.98;;;7.97;;
34673;SDS011;20879;55.668;37.858;2023-04-03T10:31:24;15.32;;;7.80;;
34673;SDS011;20879;55.668;37.858;2023-04-03T10:34:02;15.73;;;8.23;;
34673;SDS011;20879;55.668;37.858;2023-04-03T10:36:42;16.17;;;8.20;;
34673;SDS011;20879;55.668;37.858;2023-04-03T10:39:17;18.77;;;8.20;;
34673;SDS011;20879;55.668;37.858;2023-04-03T10:47:40;13.60;;;7.68;;
34673;SDS011;20879;55.668;37.858;2023-04-03T10:50:29;16.00;;;7.35;;
34673;SDS011;20879;55.668;37.858;2023-04-03T10:53:09;14.20;;;7.20;;
34673;SDS011;20879;55.668;37.858;2023-04-03T10:55:48;14.68;;;6.95;;
34673;SDS011;20879;55.668;37.858;2023-04-03T10:58:24;10.50;;;5.85;;
34673;SDS011;20879;55.668;37.858;2023-04-03T11:00:59;13.65;;;6.00;;
34673;SDS011;20879;55.668;37.858;2023-04-03T11:03:38;11.45;;;6.15;;
34673;SDS011;20879;55.668;37.858;2023-04-03T11:06:16;9.32;;;5.93;;
34673;SDS011;20879;55.668;37.858;2023-04-03T11:08:50;16.08;;;5.68;;
34673;SDS011;20879;55.668;37.858;2023-04-03T11:11:32;9.48;;;5.00;;
34673;SDS011;20879;55.668;37.858;2023-04-03T11:14:05;12.25;;;5.20;;
34673;SDS011;20879;55.668;37.858;2023-04-03T11:22:01;11.30;;;4.43;;
34673;SDS011;20879;55.668;37.858;2023-04-03T11:24:42;13.55;;;4.30;;
34673;SDS011;20879;55.668;37.858;2023-04-03T11:27:16;8.73;;;4.55;;
34673;SDS011;20879;55.668;37.858;2023-04-03T11:29:51;14.63;;;5.75;;
34673;SDS011;20879;55.668;37.858;2023-04-03T11:35:25;14.98;;;5.13;;
34673;SDS011;20879;55.668;37.858;2023-04-03T11:37:55;11.75;;;5.32;;
34673;SDS011;20879;55.668;37.858;2023-04-03T11:40:33;10.38;;;5.72;;
34673;SDS011;20879;55.668;37.858;2023-04-03T11:43:07;14.93;;;5.60;;
34673;SDS011;20879;55.668;37.858;2023-04-03T11:45:55;18.15;;;6.15;;
34673;SDS011;20879;55.668;37.858;2023-04-03T11:51:40;9.30;;;4.60;;
34673;SDS011;20879;55.668;37.858;2023-04-03T12:09:27;13.60;;;5.00;;
34673;SDS011;20879;55.668;37.858;2023-04-03T12:18:40;24.20;;;6.07;;
34673;SDS011;20879;55.668;37.858;2023-04-03T12:21:11;14.60;;;5.40;;
34673;SDS011;20879;55.668;37.858;2023-04-03T12:24:01;12.23;;;4.85;;
34673;SDS011;20879;55.668;37.858;2023-04-03T12:26:36;13.27;;;5.40;;
34673;SDS011;20879;55.668;37.858;2023-04-03T12:31:54;15.68;;;5.50;;
34673;SDS011;20879;55.668;37.858;2023-04-03T12:34:46;12.63;;;6.32;;
34673;SDS011;20879;55.668;37.858;2023-04-03T12:37:34;11.88;;;5.53;;
34673;SDS011;20879;55.668;37.858;2023-04-03T12:40:15;13.23;;;5.55;;
34673;SDS011;20879;55.668;37.858;2023-04-03T12:42:58;21.17;;;7.07;;
34673;SDS011;20879;55.668;37.858;2023-04-03T12:52:28;15.65;;;6.40;;
34673;SDS011;20879;55.668;37.858;2023-04-03T12:55:08;17.23;;;6.55;;
34673;SDS011;20879;55.668;37.858;2023-04-03T12:57:48;15.55;;;5.90;;
34673;SDS011;20879;55.668;37.858;2023-04-03T13:00:31;18.45;;;5.97;;
34673;SDS011;20879;55.668;37.858;2023-04-03T13:03:05;10.63;;;5.80;;
34673;SDS011;20879;55.668;37.858;2023-04-03T13:05:48;15.13;;;5.72;;
34673;SDS011;20879;55.668;37.858;2023-04-03T13:08:19;10.52;;;5.07;;
34673;SDS011;20879;55.668;37.858;2023-04-03T13:10:51;15.10;;;6.00;;
34673;SDS011;20879;55.668;37.858;2023-04-03T13:13:24;13.93;;;5.03;;
34673;SDS011;20879;55.668;37.858;2023-04-03T13:15:54;10.40;;;4.85;;
34673;SDS011;20879;55.668;37.858;2023-04-03T13:18:25;12.15;;;5.78;;
34673;SDS011;20879;55.668;37.858;2023-04-03T13:20:59;10.23;;;4.70;;
34673;SDS011;20879;55.668;37.858;2023-04-03T13:23:34;11.25;;;5.68;;
34673;SDS011;20879;55.668;37.858;2023-04-03T13:26:06;14.00;;;5.22;;
34673;SDS011;20879;55.668;37.858;2023-04-03T13:28:36;13.07;;;5.20;;
34673;SDS011;20879;55.668;37.858;2023-04-03T13:31:07;13.82;;;5.10;;
34673;SDS011;20879;55.668;37.858;2023-04-03T13:33:52;8.38;;;4.80;;
34673;SDS011;20879;55.668;37.858;2023-04-03T13:36:26;14.05;;;5.60;;
34673;SDS011;20879;55.668;37.858;2023-04-03T13:39:03;11.05;;;5.30;;
34673;SDS011;20879;55.668;37.858;2023-04-03T13:41:35;11.80;;;5.50;;
34673;SDS011;20879;55.668;37.858;2023-04-03T13:44:15;9.48;;;5.57;;
34673;SDS011;20879;55.668;37.858;2023-04-03T13:46:45;11.93;;;6.15;;
34673;SDS011;20879;55.668;37.858;2023-04-03T13:49:33;12.45;;;5.72;;
34673;SDS011;20879;55.668;37.858;2023-04-03T13:52:21;8.35;;;5.70;;
34673;SDS011;20879;55.668;37.858;2023-04-03T13:55:03;10.40;;;6.03;;
34673;SDS011;20879;55.668;37.858;2023-04-03T13:57:53;10.27;;;6.03;;
34673;SDS011;20879;55.668;37.858;2023-04-03T14:00:32;10.40;;;6.00;;
34673;SDS011;20879;55.668;37.858;2023-04-03T14:03:12;11.27;;;6.20;;
34673;SDS011;20879;55.668;37.858;2023-04-03T14:05:43;13.40;;;6.47;;
34673;SDS011;20879;55.668;37.858;2023-04-03T14:08:12;11.20;;;5.55;;
34673;SDS011;20879;55.668;37.858;2023-04-03T14:10:44;8.38;;;5.15;;
34673;SDS011;20879;55.668;37.858;2023-04-03T14:13:14;12.45;;;6.10;;
34673;SDS011;20879;55.668;37.858;2023-04-03T14:15:45;9.45;;;5.30;;
34673;SDS011;20879;55.668;37.858;2023-04-03T14:20:47;10.75;;;5.93;;
34673;SDS011;20879;55.668;37.858;2023-04-03T14:23:17;12.60;;;5.97;;
34673;SDS011;20879;55.668;37.858;2023-04-03T14:25:48;11.60;;;6.10;;
34673;SDS011;20879;55.668;37.858;2023-04-03T14:28:20;12.63;;;6.13;;
34673;SDS011;20879;55.668;37.858;2023-04-03T14:30:51;13.60;;;6.32;;
34673;SDS011;20879;55.668;37.858;2023-04-03T14:33:26;11.00;;;6.25;;
34673;SDS011;20879;55.668;37.858;2023-04-03T14:36:00;14.00;;;7.10;;
34673;SDS011;20879;55.668;37.858;2023-04-03T14:38:43;15.82;;;7.50;;
34673;SDS011;20879;55.668;37.858;2023-04-03T14:41:17;12.65;;;6.38;;
34673;SDS011;20879;55.668;37.858;2023-04-03T14:43:47;14.15;;;6.80;;
34673;SDS011;20879;55.668;37.858;2023-04-03T14:46:18;15.85;;;6.93;;
34673;SDS011;20879;55.668;37.858;2023-04-03T14:49:06;12.38;;;6.43;;
34673;SDS011;20879;55.668;37.858;2023-04-03T14:51:42;18.02;;;6.90;;
34673;SDS011;20879;55.668;37.858;2023-04-03T14:54:13;12.77;;;6.85;;
34673;SDS011;20879;55.668;37.858;2023-04-03T14:56:52;15.52;;;6.32;;
34673;SDS011;20879;55.668;37.858;2023-04-03T14:59:22;13.15;;;6.57;;
34673;SDS011;20879;55.668;37.858;2023-04-03T15:01:52;13.30;;;6.22;;
34673;SDS011;20879;55.668;37.858;2023-04-03T15:04:21;13.55;;;6.68;;
34673;SDS011;20879;55.668;37.858;2023-04-03T15:06:51;12.13;;;6.68;;
34673;SDS011;20879;55.668;37.858;2023-04-03T15:09:34;12.90;;;5.95;;
34673;SDS011;20879;55.668;37.858;2023-04-03T15:12:07;23.35;;;7.72;;
34673;SDS011;20879;55.668;37.858;2023-04-03T15:14:37;19.23;;;7.32;;
34673;SDS011;20879;55.668;37.858;2023-04-03T15:17:23;13.82;;;6.90;;
34673;SDS011;20879;55.668;37.858;2023-04-03T15:19:59;25.05;;;7.53;;
34673;SDS011;20879;55.668;37.858;2023-04-03T15:22:29;21.70;;;7.13;;
34673;SDS011;20879;55.668;37.858;2023-04-03T15:24:58;13.82;;;5.85;;
34673;SDS011;20879;55.668;37.858;2023-04-03T15:27:30;11.52;;;5.93;;
34673;SDS011;20879;55.668;37.858;2023-04-03T15:30:00;11.30;;;5.60;;
34673;SDS011;20879;55.668;37.858;2023-04-03T15:32:30;13.23;;;5.35;;
34673;SDS011;20879;55.668;37.858;2023-04-03T15:35:00;15.40;;;5.97;;
34673;SDS011;20879;55.668;37.858;2023-04-03T15:37:29;10.63;;;6.07;;
34673;SDS011;20879;55.668;37.858;2023-04-03T15:39:59;14.70;;;6.30;;
34673;SDS011;20879;55.668;37.858;2023-04-03T15:42:30;14.10;;;6.40;;
34673;SDS011;20879;55.668;37.858;2023-04-03T15:45:00;9.98;;;5.97;;
34673;SDS011;20879;55.668;37.858;2023-04-03T15:47:35;18.23;;;7.05;;
34673;SDS011;20879;55.668;37.858;2023-04-03T15:50:09;15.05;;;6.75;;
34673;SDS011;20879;55.668;37.858;2023-04-03T15:52:39;16.85;;;7.63;;
34673;SDS011;20879;55.668;37.858;2023-04-03T15:55:08;16.63;;;7.80;;
34673;SDS011;20879;55.668;37.858;2023-04-03T15:57:40;13.90;;;7.28;;
34673;SDS011;20879;55.668;37.858;2023-04-03T16:00:10;14.70;;;6.47;;
34673;SDS011;20879;55.668;37.858;2023-04-03T16:02:41;14.80;;;6.45;;
34673;SDS011;20879;55.668;37.858;2023-04-03T16:05:11;21.17;;;7.78;;
34673;SDS011;20879;55.668;37.858;2023-04-03T16:07:41;19.65;;;7.05;;
34673;SDS011;20879;55.668;37.858;2023-04-03T16:10:21;17.90;;;6.82;;
34673;SDS011;20879;55.668;37.858;2023-04-03T16:12:53;15.98;;;7.20;;
34673;SDS011;20879;55.668;37.858;2023-04-03T16:18:03;18.23;;;7.30;;
34673;SDS011;20879;55.668;37.858;2023-04-03T16:20:39;18.45;;;7.10;;
34673;SDS011;20879;55.668;37.858;2023-04-03T16:23:10;28.02;;;7.15;;
34673;SDS011;20879;55.668;37.858;2023-04-03T16:25:40;14.43;;;7.05;;
34673;SDS011;20879;55.668;37.858;2023-04-03T16:28:20;20.58;;;7.10;;
34673;SDS011;20879;55.668;37.858;2023-04-03T16:30:49;17.63;;;8.02;;
34673;SDS011;20879;55.668;37.858;2023-04-03T16:33:19;21.70;;;7.38;;
34673;SDS011;20879;55.668;37.858;2023-04-03T16:35:49;12.70;;;6.43;;